Time;durP1;ratioP1;P1;durP2;ratioP2;P2;SDS_P1;SDS_P2;PMS_P1;PMS_P2;Temp;Humidity;BMP_temperature;BMP_pressure;BME280_temperature;BME280_humidity;BME280_pressure;Samples;Min_cycle;Max_cycle;Signal;HPM_P1;HPM_P2
2023/10/12 00:00:24;;;;;;;8.63;3.92;;;;;;;;;;696691;28;1705;-69
2023/10/12 00:00:41;;;;;;;9.23;4.10;;;;;;;;;;701693;28;70642;-69
2023/10/12 00:01:01;;;;;;;8.65;4.30;;;;;;;;;;702600;27;1470;-70
2023/10/12 00:01:24;;;;;;;7.97;4.17;;;;;;;;;;703159;28;4378;-70
2023/10/12 00:01:57;;;;;;;8.10;3.90;;;;;;;;;;700770;28;2293;-69
2023/10/12 00:02:26;;;;;;;9.45;4.03;;;;;;;;;;699734;28;69632;-70
2023/10/12 00:02:48;;;;;;;8.43;4.10;;;;;;;;;;698278;28;92412;-69
2023/10/12 00:03:12;;;;;;;9.02;4.20;;;;;;;;;;701852;28;998;-70
2023/10/12 00:03:32;;;;;;;8.88;3.92;;;;;;;;;;703812;27;22345;-68
2023/10/12 00:03:57;;;;;;;7.50;3.90;;;;;;;;;;703191;27;1458;-68
2023/10/12 00:04:18;;;;;;;8.13;3.70;;;;;;;;;;703317;27;47263;-70
2023/10/12 00:04:43;;;;;;;7.23;3.83;;;;;;;;;;705980;27;1010;-71
2023/10/12 00:05:06;;;;;;;8.55;4.30;;;;;;;;;;701302;27;47084;-71
2023/10/12 00:05:29;;;;;;;9.40;4.43;;;;;;;;;;703249;27;998;-70
2023/10/12 00:05:50;;;;;;;8.85;3.97;;;;;;;;;;700518;28;23111;-70
2023/10/12 00:06:10;;;;;;;8.90;3.93;;;;;;;;;;699843;28;1563;-70
2023/10/12 00:06:36;;;;;;;8.50;4.20;;;;;;;;;;699120;28;1583;-69
2023/10/12 00:06:58;;;;;;;9.35;3.67;;;;;;;;;;696134;28;70126;-68
2023/10/12 00:07:33;;;;;;;9.15;3.88;;;;;;;;;;697645;28;4734;-70
2023/10/12 00:07:56;;;;;;;9.13;3.92;;;;;;;;;;697013;28;68046;-71
2023/10/12 00:08:32;;;;;;;11.55;4.10;;;;;;;;;;703042;28;22936;-71
2023/10/12 00:08:52;;;;;;;7.72;4.15;;;;;;;;;;699324;28;68448;-71
2023/10/12 00:09:20;;;;;;;7.47;4.10;;;;;;;;;;703973;28;1441;-71
2023/10/12 00:09:48;;;;;;;8.82;4.05;;;;;;;;;;701569;27;69637;-70
2023/10/12 00:10:40;;;;;;;8.00;4.05;;;;;;;;;;702741;28;23254;-70
2023/10/12 00:11:06;;;;;;;8.20;3.95;;;;;;;;;;698192;28;69661;-70
2023/10/12 00:11:37;;;;;;;8.68;3.90;;;;;;;;;;703472;27;68905;-70
2023/10/12 00:11:57;;;;;;;12.10;3.95;;;;;;;;;;699996;28;68857;-69
2023/10/12 00:12:23;;;;;;;8.97;4.00;;;;;;;;;;702493;28;1409;-66
2023/10/12 00:12:47;;;;;;;7.40;3.92;;;;;;;;;;700615;28;70168;-70
2023/10/12 00:13:11;;;;;;;7.97;4.00;;;;;;;;;;702128;28;22880;-69
2023/10/12 00:13:33;;;;;;;8.38;4.00;;;;;;;;;;702559;28;22808;-70
2023/10/12 00:13:53;;;;;;;8.02;3.63;;;;;;;;;;700206;28;2265;-68
2023/10/12 00:14:14;;;;;;;9.10;3.90;;;;;;;;;;704014;28;1546;-68
2023/10/12 00:14:35;;;;;;;7.97;4.05;;;;;;;;;;703083;28;1681;-71
2023/10/12 00:14:55;;;;;;;8.43;3.95;;;;;;;;;;697088;28;1901;-68
2023/10/12 00:15:23;;;;;;;8.70;4.15;;;;;;;;;;700435;28;1468;-70
2023/10/12 00:15:46;;;;;;;7.40;3.60;;;;;;;;;;697727;28;69713;-67
2023/10/12 00:16:06;;;;;;;8.77;4.03;;;;;;;;;;700420;28;4454;-70
2023/10/12 00:16:26;;;;;;;9.50;3.83;;;;;;;;;;703587;28;1507;-70
2023/10/12 00:16:47;;;;;;;10.10;4.10;;;;;;;;;;702453;28;2533;-71
2023/10/12 00:17:07;;;;;;;11.07;4.00;;;;;;;;;;701951;28;1388;-71
2023/10/12 00:17:27;;;;;;;9.27;4.60;;;;;;;;;;704011;28;1436;-70
2023/10/12 00:17:48;;;;;;;9.60;4.57;;;;;;;;;;700284;28;1908;-70
2023/10/12 00:18:09;;;;;;;9.68;3.63;;;;;;;;;;702069;28;935;-70
2023/10/12 00:18:34;;;;;;;10.02;3.78;;;;;;;;;;702915;28;1427;-71
2023/10/12 00:18:54;;;;;;;8.93;3.80;;;;;;;;;;700197;28;23317;-71
2023/10/12 00:19:14;;;;;;;9.20;3.97;;;;;;;;;;701175;28;4473;-70
2023/10/12 00:19:38;;;;;;;8.65;4.00;;;;;;;;;;700540;28;1900;-69
2023/10/12 00:19:58;;;;;;;9.15;3.65;;;;;;;;;;699419;28;4744;-71
2023/10/12 00:20:54;;;;;;;9.73;4.10;;;;;;;;;;698160;28;92812;-69
2023/10/12 00:21:15;;;;;;;9.35;4.05;;;;;;;;;;703242;28;1681;-69
2023/10/12 00:21:35;;;;;;;9.38;3.95;;;;;;;;;;696126;28;1619;-68
2023/10/12 00:22:09;;;;;;;8.85;3.83;;;;;;;;;;695289;28;2529;-70
2023/10/12 00:22:29;;;;;;;10.20;3.80;;;;;;;;;;693396;28;90182;-71
2023/10/12 00:22:49;;;;;;;10.00;3.80;;;;;;;;;;694420;28;1437;-71
2023/10/12 00:23:10;;;;;;;7.60;3.87;;;;;;;;;;696624;28;1615;-70
2023/10/12 00:23:33;;;;;;;9.73;3.80;;;;;;;;;;702455;28;1444;-70
2023/10/12 00:23:55;;;;;;;9.05;3.95;;;;;;;;;;699087;28;23153;-72
2023/10/12 00:24:18;;;;;;;7.20;3.95;;;;;;;;;;700303;28;1468;-71
2023/10/12 00:24:39;;;;;;;8.13;3.70;;;;;;;;;;701397;28;1420;-71
2023/10/12 00:24:59;;;;;;;7.77;3.97;;;;;;;;;;702369;28;1774;-69
2023/10/12 00:25:20;;;;;;;7.93;3.75;;;;;;;;;;703084;28;4546;-70
2023/10/12 00:25:47;;;;;;;9.00;3.85;;;;;;;;;;700961;28;1544;-70
2023/10/12 00:26:07;;;;;;;7.70;3.65;;;;;;;;;;697021;28;70208;-70
2023/10/12 00:26:31;;;;;;;8.13;3.60;;;;;;;;;;701666;28;1432;-69
2023/10/12 00:26:52;;;;;;;7.15;3.78;;;;;;;;;;698683;28;21994;-71
2023/10/12 00:27:14;;;;;;;6.68;3.85;;;;;;;;;;695271;28;1468;-70
2023/10/12 00:27:37;;;;;;;8.07;3.88;;;;;;;;;;696820;28;1607;-72
2023/10/12 00:27:58;;;;;;;8.77;3.78;;;;;;;;;;696505;28;23957;-70
2023/10/12 00:28:19;;;;;;;8.97;4.27;;;;;;;;;;696487;28;4412;-66
2023/10/12 00:28:39;;;;;;;7.95;4.35;;;;;;;;;;697366;28;1523;-71
2023/10/12 00:29:00;;;;;;;7.50;3.70;;;;;;;;;;698816;28;2032;-70
2023/10/12 00:29:21;;;;;;;8.88;3.83;;;;;;;;;;700609;28;1338;-70
2023/10/12 00:29:42;;;;;;;7.95;3.90;;;;;;;;;;700198;28;1210;-71
2023/10/12 00:30:03;;;;;;;8.77;3.95;;;;;;;;;;696835;28;2119;-71
2023/10/12 00:30:24;;;;;;;8.77;3.83;;;;;;;;;;698151;28;1480;-72
2023/10/12 00:30:47;;;;;;;7.63;3.95;;;;;;;;;;700578;28;1397;-69
2023/10/12 00:31:16;;;;;;;7.55;3.97;;;;;;;;;;700611;27;4800;-71
2023/10/12 00:31:41;;;;;;;7.13;3.70;;;;;;;;;;697177;28;91889;-71
2023/10/12 00:32:04;;;;;;;6.70;3.90;;;;;;;;;;695457;28;46376;-71
2023/10/12 00:32:25;;;;;;;9.63;3.90;;;;;;;;;;697499;28;22513;-70
2023/10/12 00:32:45;;;;;;;9.67;3.87;;;;;;;;;;699532;28;1922;-70
2023/10/12 00:33:08;;;;;;;7.13;3.60;;;;;;;;;;699774;28;1768;-71
2023/10/12 00:33:28;;;;;;;7.57;3.97;;;;;;;;;;700323;28;1443;-70
2023/10/12 00:33:49;;;;;;;8.52;3.88;;;;;;;;;;700518;28;1549;-71
2023/10/12 00:34:12;;;;;;;8.90;3.77;;;;;;;;;;699976;28;4489;-71
2023/10/12 00:34:45;;;;;;;7.70;3.45;;;;;;;;;;695424;28;1500;-70
2023/10/12 00:35:08;;;;;;;8.75;4.00;;;;;;;;;;691592;28;69830;-69
2023/10/12 00:35:28;;;;;;;7.87;3.63;;;;;;;;;;694445;28;1491;-69
2023/10/12 00:35:51;;;;;;;8.70;4.00;;;;;;;;;;693222;28;2390;-70
2023/10/12 00:36:24;;;;;;;9.20;4.13;;;;;;;;;;695084;28;25969;-69
2023/10/12 00:36:45;;;;;;;7.60;3.63;;;;;;;;;;697936;28;69558;-70
2023/10/12 00:37:07;;;;;;;8.43;3.88;;;;;;;;;;698848;28;5626;-68
2023/10/12 00:37:29;;;;;;;9.20;3.90;;;;;;;;;;697084;28;1507;-70
2023/10/12 00:37:49;;;;;;;8.33;3.90;;;;;;;;;;692929;28;2299;-69
2023/10/12 00:38:20;;;;;;;7.83;3.80;;;;;;;;;;696917;28;1364;-70
2023/10/12 00:38:41;;;;;;;12.18;4.00;;;;;;;;;;695488;28;68836;-69
2023/10/12 00:39:09;;;;;;;9.68;3.90;;;;;;;;;;696486;28;2212;-70
2023/10/12 00:39:43;;;;;;;7.13;3.78;;;;;;;;;;693320;28;72087;-71
2023/10/12 00:40:26;;;;;;;9.45;3.83;;;;;;;;;;694011;28;92260;-71
2023/10/12 00:40:57;;;;;;;7.80;3.80;;;;;;;;;;694871;28;89428;-71
2023/10/12 00:41:19;;;;;;;7.38;3.88;;;;;;;;;;693598;28;73419;-71
2023/10/12 00:41:45;;;;;;;7.72;3.90;;;;;;;;;;694654;28;1597;-69
2023/10/12 00:42:06;;;;;;;8.23;3.70;;;;;;;;;;694289;28;70060;-71
2023/10/12 00:42:32;;;;;;;8.80;3.80;;;;;;;;;;697702;28;5640;-71
2023/10/12 00:42:53;;;;;;;10.90;4.28;;;;;;;;;;694180;28;69920;-71
2023/10/12 00:43:15;;;;;;;6.72;3.80;;;;;;;;;;696548;28;4409;-71
2023/10/12 00:43:49;;;;;;;6.22;3.70;;;;;;;;;;696898;28;1444;-69
2023/10/12 00:44:12;;;;;;;8.50;3.95;;;;;;;;;;691869;28;68568;-70
2023/10/12 00:44:35;;;;;;;8.20;3.47;;;;;;;;;;694403;28;23062;-71
2023/10/12 00:44:55;;;;;;;8.07;3.88;;;;;;;;;;696268;28;1775;-69
2023/10/12 00:45:19;;;;;;;9.32;3.88;;;;;;;;;;698778;28;1728;-68
2023/10/12 00:45:40;;;;;;;8.82;4.20;;;;;;;;;;700833;28;26466;-70
2023/10/12 00:46:16;;;;;;;7.90;3.90;;;;;;;;;;702264;28;1332;-69
2023/10/12 00:47:43;;;;;;;7.80;3.90;;;;;;;;;;700862;28;1393;-69
2023/10/12 00:48:07;;;;;;;11.15;4.10;;;;;;;;;;696553;28;69987;-70
2023/10/12 00:48:30;;;;;;;9.52;4.00;;;;;;;;;;698475;28;22465;-70
2023/10/12 00:49:14;;;;;;;8.95;4.18;;;;;;;;;;700729;28;23526;-70
2023/10/12 00:49:39;;;;;;;7.00;3.78;;;;;;;;;;696630;28;89596;-69
2023/10/12 00:50:11;;;;;;;7.53;3.70;;;;;;;;;;697559;28;46599;-70
2023/10/12 00:50:31;;;;;;;8.45;4.00;;;;;;;;;;700231;28;69358;-69
2023/10/12 00:50:54;;;;;;;8.00;3.67;;;;;;;;;;698186;28;2524;-70
2023/10/12 00:51:17;;;;;;;8.05;4.13;;;;;;;;;;693347;28;45556;-69
2023/10/12 00:51:37;;;;;;;7.65;3.75;;;;;;;;;;697929;28;1468;-69
2023/10/12 00:52:08;;;;;;;8.33;3.67;;;;;;;;;;696746;28;1925;-69
2023/10/12 00:52:35;;;;;;;8.57;4.40;;;;;;;;;;689755;28;89415;-69
2023/10/12 00:52:58;;;;;;;7.65;4.18;;;;;;;;;;693034;28;95194;-69
2023/10/12 00:53:38;;;;;;;9.30;3.90;;;;;;;;;;703129;28;1420;-70
2023/10/12 00:53:59;;;;;;;9.93;4.10;;;;;;;;;;701977;28;2624;-70
2023/10/12 00:54:27;;;;;;;9.40;4.30;;;;;;;;;;699081;28;1467;-69
2023/10/12 00:54:55;;;;;;;9.43;4.15;;;;;;;;;;695754;28;70543;-69
2023/10/12 00:55:21;;;;;;;9.07;4.28;;;;;;;;;;691801;28;69707;-70
2023/10/12 00:55:43;;;;;;;10.52;3.90;;;;;;;;;;692653;28;69977;-70
2023/10/12 00:56:03;;;;;;;8.40;3.85;;;;;;;;;;691254;28;1766;-69
2023/10/12 00:56:28;;;;;;;8.70;3.90;;;;;;;;;;695678;28;1401;-70
2023/10/12 00:56:48;;;;;;;8.18;3.90;;;;;;;;;;696247;28;48604;-70
2023/10/12 00:57:09;;;;;;;7.75;4.10;;;;;;;;;;699293;28;1546;-70
2023/10/12 00:57:31;;;;;;;7.10;4.00;;;;;;;;;;697176;28;1480;-70
2023/10/12 00:57:52;;;;;;;7.80;3.80;;;;;;;;;;696255;28;1905;-71
2023/10/12 00:58:14;;;;;;;8.33;3.90;;;;;;;;;;696393;28;5421;-70
2023/10/12 00:58:36;;;;;;;7.72;4.30;;;;;;;;;;695583;28;1462;-70
2023/10/12 00:58:57;;;;;;;7.60;4.22;;;;;;;;;;693428;28;1860;-69
2023/10/12 00:59:21;;;;;;;7.85;3.92;;;;;;;;;;692777;28;1377;-71
2023/10/12 00:59:43;;;;;;;8.68;4.10;;;;;;;;;;696112;28;1229;-71
2023/10/12 01:00:15;;;;;;;9.63;4.28;;;;;;;;;;697427;28;2530;-71
2023/10/12 01:00:44;;;;;;;8.88;4.13;;;;;;;;;;701478;28;68333;-70
2023/10/12 01:01:05;;;;;;;6.53;3.88;;;;;;;;;;700289;27;71028;-71
2023/10/12 01:01:25;;;;;;;8.10;3.90;;;;;;;;;;700120;28;5886;-71
2023/10/12 01:01:45;;;;;;;8.70;3.78;;;;;;;;;;700902;28;1579;-69
2023/10/12 01:02:12;;;;;;;7.10;3.70;;;;;;;;;;696002;28;1761;-69
2023/10/12 01:02:39;;;;;;;8.10;3.97;;;;;;;;;;695811;28;68794;-69
2023/10/12 01:03:27;;;;;;;8.60;3.80;;;;;;;;;;694397;28;69668;-69
2023/10/12 01:03:49;;;;;;;8.75;4.47;;;;;;;;;;701044;28;69387;-71
2023/10/12 01:04:15;;;;;;;9.57;4.50;;;;;;;;;;699571;28;4430;-70
2023/10/12 01:04:36;;;;;;;8.23;4.03;;;;;;;;;;695934;28;72345;-70
2023/10/12 01:04:57;;;;;;;7.10;3.70;;;;;;;;;;694078;28;1449;-68
2023/10/12 01:05:20;;;;;;;8.32;3.90;;;;;;;;;;696021;28;1368;-70
2023/10/12 01:05:43;;;;;;;7.10;3.67;;;;;;;;;;694165;28;45846;-71
2023/10/12 01:06:33;;;;;;;8.38;3.70;;;;;;;;;;697294;28;72354;-71
2023/10/12 01:06:59;;;;;;;8.35;3.70;;;;;;;;;;700750;28;2334;-71
2023/10/12 01:07:20;;;;;;;8.02;3.90;;;;;;;;;;698371;28;69975;-71
2023/10/12 01:07:42;;;;;;;7.68;3.72;;;;;;;;;;700286;28;1570;-71
2023/10/12 01:08:04;;;;;;;8.48;3.97;;;;;;;;;;695070;28;1468;-71
2023/10/12 01:08:24;;;;;;;8.05;3.78;;;;;;;;;;699028;28;1523;-69
2023/10/12 01:08:47;;;;;;;9.43;3.80;;;;;;;;;;701302;28;1483;-70
2023/10/12 01:09:18;;;;;;;7.90;3.83;;;;;;;;;;696170;28;25154;-70
2023/10/12 01:09:39;;;;;;;8.32;3.50;;;;;;;;;;694331;28;69088;-69
2023/10/12 01:10:06;;;;;;;7.83;3.93;;;;;;;;;;698132;28;1509;-71
2023/10/12 01:10:31;;;;;;;8.07;4.03;;;;;;;;;;696542;28;89689;-69
2023/10/12 01:10:57;;;;;;;9.55;3.90;;;;;;;;;;698549;28;47094;-70
2023/10/12 01:11:20;;;;;;;8.85;3.70;;;;;;;;;;700059;28;69125;-70
2023/10/12 01:11:43;;;;;;;9.00;3.95;;;;;;;;;;703234;28;1325;-70
2023/10/12 01:12:06;;;;;;;9.15;3.97;;;;;;;;;;698436;28;1510;-70
2023/10/12 01:12:30;;;;;;;7.57;4.00;;;;;;;;;;700017;28;1499;-70
2023/10/12 01:12:51;;;;;;;6.95;3.80;;;;;;;;;;697921;28;23610;-69
2023/10/12 01:13:11;;;;;;;8.23;3.90;;;;;;;;;;698462;28;4404;-70
2023/10/12 01:13:35;;;;;;;7.70;3.73;;;;;;;;;;698123;28;1421;-69
2023/10/12 01:14:09;;;;;;;8.15;4.20;;;;;;;;;;697709;28;22769;-69
2023/10/12 01:14:31;;;;;;;8.70;3.47;;;;;;;;;;695247;28;70903;-68
2023/10/12 01:14:54;;;;;;;7.72;3.70;;;;;;;;;;696818;28;2257;-70
2023/10/12 01:15:16;;;;;;;7.90;3.80;;;;;;;;;;700150;28;23609;-71
2023/10/12 01:15:40;;;;;;;8.32;4.00;;;;;;;;;;702800;28;1452;-69
2023/10/12 01:17:03;;;;;;;8.45;4.10;;;;;;;;;;685945;28;90178;-69
2023/10/12 01:17:25;;;;;;;8.35;3.80;;;;;;;;;;689903;28;70907;-70
2023/10/12 01:17:51;;;;;;;7.57;3.75;;;;;;;;;;689646;28;1388;-70
2023/10/12 01:18:12;;;;;;;7.63;3.75;;;;;;;;;;686797;28;70394;-68
2023/10/12 01:18:34;;;;;;;7.60;3.88;;;;;;;;;;690793;28;1644;-68
2023/10/12 01:19:31;;;;;;;7.65;3.80;;;;;;;;;;687525;28;2363;-69
2023/10/12 01:19:47;;;;;;;8.68;3.97;;;;;;;;;;688874;28;69732;-69
2023/10/12 01:20:12;;;;;;;7.75;4.00;;;;;;;;;;692049;28;73082;-68
2023/10/12 01:20:39;;;;;;;9.25;4.18;;;;;;;;;;694933;28;48325;-68
2023/10/12 01:21:02;;;;;;;8.02;4.00;;;;;;;;;;693307;28;69517;-68
2023/10/12 01:21:23;;;;;;;9.07;4.25;;;;;;;;;;695585;28;22911;-69
2023/10/12 01:21:43;;;;;;;8.47;4.17;;;;;;;;;;699553;28;1485;-69
2023/10/12 01:22:13;;;;;;;10.37;4.27;;;;;;;;;;699921;28;1722;-68
2023/10/12 01:22:33;;;;;;;8.07;4.57;;;;;;;;;;696707;28;89618;-68
2023/10/12 01:22:57;;;;;;;8.20;4.00;;;;;;;;;;698972;28;2333;-67
2023/10/12 01:23:18;;;;;;;7.30;4.03;;;;;;;;;;695985;28;49294;-67
2023/10/12 01:23:41;;;;;;;7.73;3.90;;;;;;;;;;695548;28;1453;-68
2023/10/12 01:24:03;;;;;;;9.85;3.97;;;;;;;;;;696649;28;2386;-68
2023/10/12 01:24:30;;;;;;;9.95;4.00;;;;;;;;;;698899;28;1416;-68
2023/10/12 01:25:12;;;;;;;11.17;4.23;;;;;;;;;;700307;28;4383;-68
2023/10/12 01:25:40;;;;;;;10.20;4.15;;;;;;;;;;702356;28;1480;-69
2023/10/12 01:26:09;;;;;;;8.05;4.05;;;;;;;;;;696488;28;70978;-69
2023/10/12 01:26:31;;;;;;;7.03;4.07;;;;;;;;;;697882;28;70024;-67
2023/10/12 01:26:53;;;;;;;6.90;4.10;;;;;;;;;;696845;28;2295;-69
2023/10/12 01:27:14;;;;;;;9.05;4.10;;;;;;;;;;694120;28;1612;-69
2023/10/12 01:27:41;;;;;;;8.90;4.27;;;;;;;;;;695337;28;1489;-69
2023/10/12 01:28:06;;;;;;;8.05;4.15;;;;;;;;;;693298;28;69557;-69
2023/10/12 01:28:28;;;;;;;8.63;4.25;;;;;;;;;;694387;28;90594;-69
2023/10/12 01:28:49;;;;;;;8.27;4.40;;;;;;;;;;696946;28;1318;-68
2023/10/12 01:29:17;;;;;;;7.55;4.00;;;;;;;;;;695809;28;2317;-69
2023/10/12 01:29:37;;;;;;;7.47;3.80;;;;;;;;;;697844;28;68838;-69
2023/10/12 01:30:14;;;;;;;8.57;3.80;;;;;;;;;;696499;28;2432;-68
2023/10/12 01:30:36;;;;;;;8.63;4.38;;;;;;;;;;698277;28;69615;-68
2023/10/12 01:30:56;;;;;;;7.60;4.05;;;;;;;;;;698017;28;2137;-67
2023/10/12 01:31:27;;;;;;;7.67;4.10;;;;;;;;;;700826;28;4371;-68
2023/10/12 01:32:20;;;;;;;8.57;3.85;;;;;;;;;;697743;28;70112;-68
2023/10/12 01:32:37;;;;;;;7.47;3.95;;;;;;;;;;695077;28;70739;-68
2023/10/12 01:32:57;;;;;;;7.47;3.90;;;;;;;;;;696928;28;2417;-68
2023/10/12 01:33:18;;;;;;;8.88;4.07;;;;;;;;;;694819;28;1492;-68
2023/10/12 01:33:41;;;;;;;8.90;3.90;;;;;;;;;;694477;28;1516;-67
2023/10/12 01:34:03;;;;;;;9.00;3.70;;;;;;;;;;693510;28;24227;-69
2023/10/12 01:34:24;;;;;;;8.07;3.72;;;;;;;;;;698950;28;4380;-68
2023/10/12 01:34:52;;;;;;;9.90;3.90;;;;;;;;;;700697;28;1267;-68
2023/10/12 01:35:16;;;;;;;10.70;3.92;;;;;;;;;;698765;28;69471;-68
2023/10/12 01:35:41;;;;;;;8.68;3.70;;;;;;;;;;699260;28;45714;-68
2023/10/12 01:36:02;;;;;;;6.57;3.80;;;;;;;;;;697202;28;47235;-64
2023/10/12 01:36:23;;;;;;;8.50;3.80;;;;;;;;;;698548;28;1468;-69
2023/10/12 01:36:44;;;;;;;9.05;3.80;;;;;;;;;;700927;28;1452;-68
2023/10/12 01:37:21;;;;;;;8.38;3.90;;;;;;;;;;699976;28;2279;-67
2023/10/12 01:37:55;;;;;;;8.82;4.05;;;;;;;;;;699703;28;89203;-68
2023/10/12 01:38:16;;;;;;;9.15;3.70;;;;;;;;;;701253;28;69976;-69
2023/10/12 01:38:39;;;;;;;9.67;3.73;;;;;;;;;;702606;28;1678;-68
2023/10/12 01:39:15;;;;;;;7.30;3.80;;;;;;;;;;698608;28;22862;-68
2023/10/12 01:39:39;;;;;;;6.78;3.40;;;;;;;;;;698097;28;70016;-69
2023/10/12 01:40:24;;;;;;;7.18;3.65;;;;;;;;;;698447;28;4642;-69
2023/10/12 01:40:54;;;;;;;7.28;3.97;;;;;;;;;;700650;28;1416;-69
2023/10/12 01:41:24;;;;;;;8.00;3.80;;;;;;;;;;701083;28;70007;-68
2023/10/12 01:41:47;;;;;;;8.25;3.97;;;;;;;;;;700674;28;69012;-69
2023/10/12 01:42:09;;;;;;;8.38;4.13;;;;;;;;;;701079;28;5620;-69
2023/10/12 01:43:02;;;;;;;7.22;3.80;;;;;;;;;;701283;27;69515;-68
2023/10/12 01:43:27;;;;;;;11.50;4.00;;;;;;;;;;703872;28;4429;-68
2023/10/12 01:43:47;;;;;;;8.77;3.88;;;;;;;;;;700914;28;46568;-69
2023/10/12 01:44:11;;;;;;;6.95;3.80;;;;;;;;;;701368;28;2596;-69
2023/10/12 01:44:32;;;;;;;7.63;3.83;;;;;;;;;;701089;28;1610;-70
2023/10/12 01:44:53;;;;;;;8.20;3.83;;;;;;;;;;697120;28;1449;-69
2023/10/12 01:45:18;;;;;;;7.35;3.38;;;;;;;;;;694155;28;1624;-69
2023/10/12 01:45:42;;;;;;;8.30;3.47;;;;;;;;;;692869;28;70626;-69
2023/10/12 01:46:08;;;;;;;8.48;3.80;;;;;;;;;;692477;28;2036;-68
2023/10/12 01:46:29;;;;;;;9.75;4.43;;;;;;;;;;693969;28;90731;-69
2023/10/12 01:46:50;;;;;;;9.02;4.43;;;;;;;;;;700508;28;1479;-68
2023/10/12 01:47:11;;;;;;;7.70;4.10;;;;;;;;;;698643;28;2298;-69
2023/10/12 01:47:37;;;;;;;7.13;3.77;;;;;;;;;;700629;28;1532;-69
2023/10/12 01:48:37;;;;;;;10.88;4.10;;;;;;;;;;700897;28;70889;-69
2023/10/12 01:48:57;;;;;;;9.30;4.20;;;;;;;;;;701609;28;2481;-68
2023/10/12 01:49:18;;;;;;;9.15;3.92;;;;;;;;;;703245;28;4389;-69
2023/10/12 01:49:39;;;;;;;6.87;3.43;;;;;;;;;;703510;28;1519;-68
2023/10/12 01:50:00;;;;;;;7.15;3.67;;;;;;;;;;703305;27;1742;-67
2023/10/12 01:50:24;;;;;;;8.85;4.13;;;;;;;;;;704382;28;1475;-69
2023/10/12 01:50:46;;;;;;;8.05;3.85;;;;;;;;;;703333;28;22909;-69
2023/10/12 01:51:14;;;;;;;8.13;4.00;;;;;;;;;;703745;27;1321;-68
2023/10/12 01:51:42;;;;;;;8.50;4.18;;;;;;;;;;699239;28;69807;-69
2023/10/12 01:52:03;;;;;;;9.25;4.13;;;;;;;;;;699001;28;69727;-64
2023/10/12 01:52:23;;;;;;;6.78;3.50;;;;;;;;;;699568;28;4659;-69
2023/10/12 01:52:46;;;;;;;6.90;3.70;;;;;;;;;;699974;28;1483;-70
2023/10/12 01:53:08;;;;;;;6.60;3.70;;;;;;;;;;698845;28;1973;-68
2023/10/12 01:53:32;;;;;;;9.07;3.95;;;;;;;;;;698977;28;1488;-68
2023/10/12 01:53:54;;;;;;;8.88;4.07;;;;;;;;;;697538;28;1552;-67
2023/10/12 01:54:24;;;;;;;6.88;3.50;;;;;;;;;;697226;28;1413;-68
2023/10/12 01:54:49;;;;;;;7.32;3.90;;;;;;;;;;691604;28;68100;-68
2023/10/12 01:55:27;;;;;;;9.63;4.05;;;;;;;;;;694474;28;22701;-68
2023/10/12 01:55:51;;;;;;;10.27;3.90;;;;;;;;;;698759;28;68536;-69
2023/10/12 01:56:12;;;;;;;7.28;3.70;;;;;;;;;;698751;28;24100;-68
2023/10/12 01:56:33;;;;;;;6.77;3.97;;;;;;;;;;700083;28;1388;-67
2023/10/12 01:56:55;;;;;;;7.88;3.90;;;;;;;;;;695668;28;1582;-68
2023/10/12 01:57:29;;;;;;;8.48;3.95;;;;;;;;;;698326;28;1413;-68
2023/10/12 01:57:54;;;;;;;8.85;4.00;;;;;;;;;;695289;28;69306;-69
2023/10/12 01:58:14;;;;;;;7.63;3.92;;;;;;;;;;696515;28;25745;-68
2023/10/12 01:58:35;;;;;;;7.47;3.70;;;;;;;;;;695950;28;1710;-68
2023/10/12 01:58:56;;;;;;;8.43;3.75;;;;;;;;;;693769;28;1862;-69
2023/10/12 01:59:19;;;;;;;7.77;3.90;;;;;;;;;;694826;28;1394;-69
2023/10/12 01:59:41;;;;;;;8.65;4.90;;;;;;;;;;695812;28;1388;-69
2023/10/12 02:00:15;;;;;;;8.15;3.92;;;;;;;;;;695816;28;2000;-69
2023/10/12 02:00:41;;;;;;;8.07;3.90;;;;;;;;;;701112;28;71407;-68
2023/10/12 02:01:07;;;;;;;8.15;3.92;;;;;;;;;;700409;28;48252;-67
2023/10/12 02:01:33;;;;;;;8.65;3.60;;;;;;;;;;700896;28;91003;-68
2023/10/12 02:02:06;;;;;;;8.95;3.90;;;;;;;;;;703204;28;48584;-68
2023/10/12 02:02:26;;;;;;;8.23;3.70;;;;;;;;;;699554;28;69535;-67
2023/10/12 02:02:54;;;;;;;6.68;3.97;;;;;;;;;;697561;28;1481;-67
2023/10/12 02:03:32;;;;;;;8.38;3.90;;;;;;;;;;696455;28;67714;-68
2023/10/12 02:03:55;;;;;;;8.63;3.92;;;;;;;;;;699665;28;69448;-68
2023/10/12 02:04:16;;;;;;;8.70;4.00;;;;;;;;;;701478;28;4452;-68
2023/10/12 02:04:40;;;;;;;9.18;4.25;;;;;;;;;;702021;28;1480;-68
2023/10/12 02:05:01;;;;;;;8.10;3.95;;;;;;;;;;698243;28;1588;-69
2023/10/12 02:05:24;;;;;;;7.25;3.88;;;;;;;;;;696502;28;1444;-69
2023/10/12 02:05:58;;;;;;;7.97;4.47;;;;;;;;;;693942;28;1418;-68
2023/10/12 02:06:19;;;;;;;8.88;3.95;;;;;;;;;;690509;28;71408;-68
2023/10/12 02:06:40;;;;;;;8.43;3.85;;;;;;;;;;691552;28;1267;-69
2023/10/12 02:07:02;;;;;;;8.77;4.20;;;;;;;;;;691531;28;1881;-68
2023/10/12 02:07:25;;;;;;;9.15;4.10;;;;;;;;;;694349;28;4366;-68
2023/10/12 02:07:45;;;;;;;8.63;3.80;;;;;;;;;;695625;28;1735;-68
2023/10/12 02:08:05;;;;;;;7.50;3.87;;;;;;;;;;693492;28;1846;-69
2023/10/12 02:08:33;;;;;;;8.57;4.00;;;;;;;;;;694057;28;1231;-68
2023/10/12 02:08:53;;;;;;;10.70;4.10;;;;;;;;;;694766;28;69513;-67
2023/10/12 02:09:15;;;;;;;9.87;4.00;;;;;;;;;;695323;28;2621;-69
2023/10/12 02:09:36;;;;;;;8.57;4.00;;;;;;;;;;696371;28;925;-67
2023/10/12 02:09:58;;;;;;;9.20;3.88;;;;;;;;;;697177;28;1900;-70
2023/10/12 02:10:18;;;;;;;7.97;3.70;;;;;;;;;;699130;28;4370;-68
2023/10/12 02:10:43;;;;;;;7.78;3.80;;;;;;;;;;694720;28;1290;-67
2023/10/12 02:11:43;;;;;;;7.60;3.80;;;;;;;;;;698418;28;69475;-68
2023/10/12 02:12:10;;;;;;;8.57;4.00;;;;;;;;;;696317;28;72541;-68
2023/10/12 02:12:32;;;;;;;7.28;3.90;;;;;;;;;;699876;27;69495;-66
2023/10/12 02:12:55;;;;;;;7.70;4.38;;;;;;;;;;699731;28;1905;-68
2023/10/12 02:13:16;;;;;;;10.98;4.15;;;;;;;;;;698384;28;4404;-69
2023/10/12 02:13:36;;;;;;;9.93;4.07;;;;;;;;;;699417;28;821;-68
2023/10/12 02:14:01;;;;;;;8.27;4.20;;;;;;;;;;696104;28;1944;-68
2023/10/12 02:14:32;;;;;;;8.75;4.07;;;;;;;;;;697731;28;26350;-68
2023/10/12 02:14:53;;;;;;;7.38;4.00;;;;;;;;;;701483;28;68152;-69
2023/10/12 02:15:15;;;;;;;7.90;3.80;;;;;;;;;;702718;28;2547;-69
2023/10/12 02:15:36;;;;;;;8.18;3.85;;;;;;;;;;701310;28;1195;-68
2023/10/12 02:16:00;;;;;;;8.50;3.80;;;;;;;;;;699711;28;2205;-69
2023/10/12 02:16:24;;;;;;;8.23;4.00;;;;;;;;;;700504;28;4542;-67
2023/10/12 02:16:53;;;;;;;8.15;4.10;;;;;;;;;;699168;28;48270;-66
2023/10/12 02:17:13;;;;;;;8.57;4.38;;;;;;;;;;694805;28;71041;-68
2023/10/12 02:17:35;;;;;;;8.67;4.50;;;;;;;;;;698343;28;1382;-68
2023/10/12 02:17:58;;;;;;;10.18;4.70;;;;;;;;;;696048;28;1861;-69
2023/10/12 02:18:19;;;;;;;10.02;4.10;;;;;;;;;;696437;28;23643;-68
2023/10/12 02:18:40;;;;;;;9.17;3.80;;;;;;;;;;698412;28;1123;-65
2023/10/12 02:19:09;;;;;;;7.93;4.13;;;;;;;;;;696827;28;1914;-66
2023/10/12 02:19:41;;;;;;;8.90;4.13;;;;;;;;;;697696;28;89719;-68
2023/10/12 02:20:01;;;;;;;7.68;4.13;;;;;;;;;;699613;28;69385;-67
2023/10/12 02:20:32;;;;;;;8.50;4.57;;;;;;;;;;704590;28;866;-68
2023/10/12 02:21:11;;;;;;;9.23;4.47;;;;;;;;;;702594;27;69670;-68
2023/10/12 02:21:33;;;;;;;7.70;4.18;;;;;;;;;;700883;28;68208;-67
2023/10/12 02:21:59;;;;;;;7.95;3.88;;;;;;;;;;703982;28;931;-67
2023/10/12 02:22:24;;;;;;;7.90;4.13;;;;;;;;;;696494;28;71451;-68
2023/10/12 02:22:49;;;;;;;8.63;4.45;;;;;;;;;;695527;28;70568;-68
2023/10/12 02:23:13;;;;;;;7.07;4.57;;;;;;;;;;691142;28;69815;-67
2023/10/12 02:24:14;;;;;;;7.78;4.25;;;;;;;;;;696092;28;68495;-68
2023/10/12 02:24:35;;;;;;;7.15;4.40;;;;;;;;;;702921;28;1141;-67
2023/10/12 02:25:29;;;;;;;8.23;4.13;;;;;;;;;;698913;28;1396;-69
2023/10/12 02:25:50;;;;;;;8.55;4.20;;;;;;;;;;692532;28;89294;-68
2023/10/12 02:27:13;;;;;;;8.57;4.23;;;;;;;;;;697143;28;1874;-68
2023/10/12 02:27:33;;;;;;;9.73;4.50;;;;;;;;;;697107;28;1042;-68
2023/10/12 02:27:56;;;;;;;9.05;4.50;;;;;;;;;;696078;28;1485;-66
2023/10/12 02:28:22;;;;;;;8.32;4.57;;;;;;;;;;697255;28;4557;-65
2023/10/12 02:28:43;;;;;;;9.82;4.45;;;;;;;;;;694424;28;68907;-67
2023/10/12 02:29:35;;;;;;;8.40;4.10;;;;;;;;;;694229;28;69608;-68
2023/10/12 02:29:56;;;;;;;9.00;4.30;;;;;;;;;;698759;28;47465;-68
2023/10/12 02:30:18;;;;;;;8.50;4.25;;;;;;;;;;702818;28;1212;-68
2023/10/12 02:30:38;;;;;;;9.95;4.30;;;;;;;;;;699383;28;6888;-68
2023/10/12 02:31:02;;;;;;;7.90;4.20;;;;;;;;;;696112;28;7778;-69
2023/10/12 02:31:28;;;;;;;8.27;4.75;;;;;;;;;;699997;28;1651;-65
2023/10/12 02:32:17;;;;;;;8.98;3.97;;;;;;;;;;697592;28;2657;-68
2023/10/12 02:32:46;;;;;;;9.63;4.30;;;;;;;;;;694139;28;72281;-69
2023/10/12 02:33:08;;;;;;;7.63;4.07;;;;;;;;;;694465;28;69703;-67
2023/10/12 02:33:35;;;;;;;8.45;4.18;;;;;;;;;;701088;28;947;-66
2023/10/12 02:33:56;;;;;;;10.80;4.30;;;;;;;;;;698303;28;69954;-69
2023/10/12 02:34:16;;;;;;;10.70;4.53;;;;;;;;;;697745;28;2011;-67
2023/10/12 02:34:41;;;;;;;10.98;4.68;;;;;;;;;;701147;28;943;-67
2023/10/12 02:35:11;;;;;;;8.50;4.50;;;;;;;;;;699041;28;23049;-67
2023/10/12 02:35:36;;;;;;;8.75;4.32;;;;;;;;;;691925;28;72143;-67
2023/10/12 02:35:58;;;;;;;11.52;5.05;;;;;;;;;;692764;28;46126;-66
2023/10/12 02:36:18;;;;;;;9.25;4.53;;;;;;;;;;698532;28;1330;-68
2023/10/12 02:36:39;;;;;;;8.30;4.80;;;;;;;;;;695583;28;946;-67
2023/10/12 02:37:32;;;;;;;8.35;4.82;;;;;;;;;;698644;28;72132;-67
2023/10/12 02:37:53;;;;;;;7.65;4.57;;;;;;;;;;697485;28;1298;-67